• Join FlightAware (Why Join?)
  • Login
  • US Flag 
08:17PM EDT


 

Airport Tracker/Info


-or-


 

Live Flight TrackerFlight Track Log ✈ EGF2822 ✈ 06-May-2012 ✈ KDFW - KTLH

Flight Track Log - Related Links

Times and Time Zones

All times are in EDT time to prevent confusion due to time zone crossing. See the EGF2822 flight status page for this flight to view local times or setup timezone preferences in your user account.

Time Position Orientation Groundspeed Altitude Reporting Facility
EDT Latitude Longitude Course Direction KTS MPH feet Rate Location/Type
03:22PM 32.8349 -97.0289 358° North  Level FlightAware Approximate
03:23PM 32.8600 -97.0300 149° Southeast 175 201 1,700  Level FAA TRACON SMA TRACON (SMA)
03:27PM 32.6869 -96.9058 84° East 274 315 8,900 1,740 Climbing FAA TRACON SMA TRACON (SMA)
03:28PM 32.6928 -96.8419 83° East 283 326 9,900 780 Climbing FAA TRACON SMA TRACON (SMA)
03:28PM 32.6994 -96.7750 80° East 292 336 10,000 900 Climbing FAA TRACON SMA TRACON (SMA)
03:29PM 32.7081 -96.7150 80° East 302 348 11,100 1,860 Climbing FAA TRACON SMA TRACON (SMA)
03:30PM 32.7183 -96.6461 81° East 305 351 12,500 1,860 Climbing FAA TRACON SMA TRACON (SMA)
03:30PM 32.7272 -96.5786 80° East 301 346 13,600 1,440 Climbing FAA TRACON SMA TRACON (SMA)
03:31PM 32.7364 -96.5153 89° East 312 359 14,400 1,260 Climbing FAA TRACON SMA TRACON (SMA)
03:32PM 32.7378 -96.4419 90° East 323 372 15,300 960 Climbing FAA TRACON SMA TRACON (SMA)
03:32PM 32.7375 -96.3644 89° East 340 391 15,700 540 Climbing FAA TRACON SMA TRACON (SMA)
03:33PM 32.7381 -96.2919 91° East 357 411 16,100 960 Climbing FAA TRACON SMA TRACON (SMA)
03:34PM 32.7372 -96.2083 90° East 365 420 17,000 1,260 Climbing FAA TRACON SMA TRACON (SMA)
03:34PM 32.7378 -96.1244 90° East 368 423 17,800 1,200 Climbing FAA TRACON SMA TRACON (SMA)
03:35PM 32.7375 -96.0494 91° East 370 426 18,600 1,200 Climbing FAA TRACON SMA TRACON (SMA)
03:36PM 32.7364 -95.9644 89° East 373 429 19,400 1,140 Climbing FAA TRACON SMA TRACON (SMA)
03:36PM 32.7372 -95.8881 94° East 375 432 20,100 1,140 Climbing FAA TRACON SMA TRACON (SMA)
03:37PM 32.7283 -95.7292 91° East 374 430 21,700 1,140 Climbing Fort Worth Center
03:38PM 32.7264 -95.6058 89° East 374 430 22,800 1,080 Climbing Fort Worth Center
03:39PM 32.7289 -95.4872 91° East 384 442 23,900 1,020 Climbing Fort Worth Center
03:40PM 32.7272 -95.3761 93° East 379 436 24,900 1,080 Climbing Fort Worth Center
03:41PM 32.7206 -95.2381 92° East 379 436 26,100 1,200 Climbing Fort Worth Center
03:42PM 32.7164 -95.1122 90° East 379 436 27,300 1,140 Climbing Fort Worth Center
03:43PM 32.7161 -94.9839 93° East 385 443 28,400 1,140 Climbing Fort Worth Center
03:44PM 32.7114 -94.8606 99° East 380 437 29,600 1,080 Climbing Fort Worth Center
03:45PM 32.6944 -94.7375 113° Southeast 380 437 30,600 900 Climbing Fort Worth Center
03:46PM 32.6522 -94.6203 112° Southeast 380 437 31,500 900 Climbing Fort Worth Center
03:47PM 32.6119 -94.5033 112° Southeast 380 437 32,500 1,020 Climbing Fort Worth Center
03:48PM 32.5669 -94.3717 112° Southeast 389 448 33,600 1,020 Climbing Fort Worth Center
03:49PM 32.5264 -94.2522 112° Southeast 389 448 34,600 660 Climbing Fort Worth Center
03:50PM 32.4858 -94.1356 112° Southeast 389 448 35,000 180 Climbing Fort Worth Center
03:51PM 32.4431 -94.0114 112° Southeast 389 448 35,000  Level Fort Worth Center
03:52PM 32.3978 -93.8803 112° Southeast 402 463 35,100 600 Climbing Fort Worth Center
03:53PM 32.3542 -93.7517 113° Southeast 413 475 36,200 900 Climbing Fort Worth Center
03:54PM 32.3089 -93.6233 113° Southeast 419 482 37,000 240 Climbing Fort Worth Center
03:56PM 32.2275 -93.3950 112° Southeast 410 472 37,000  Level Houston Center
03:57PM 32.1811 -93.2594 113° Southeast 423 487 37,000  Level Houston Center
03:58PM 32.1325 -93.1261 112° Southeast 440 506 37,000  Level Houston Center
03:59PM 32.0861 -92.9908 114° Southeast 440 506 37,000  Level Houston Center
04:00PM 32.0331 -92.8481 113° Southeast 440 506 37,000  Level Houston Center
04:01PM 31.9842 -92.7131 109° East 441 507 37,000  Level Houston Center
04:02PM 31.9436 -92.5708 107° East 441 507 37,000  Level Houston Center
04:03PM 31.9069 -92.4311 107° East 442 509 37,000  Level Houston Center
04:04PM 31.8700 -92.2914 108° East 442 509 37,000  Level Houston Center
04:05PM 31.8311 -92.1494 107° East 457 526 37,000  Level Houston Center
04:06PM 31.7939 -92.0053 108° East 457 526 37,000  Level Houston Center
04:07PM 31.7547 -91.8636 108° East 457 526 37,000  Level Houston Center
04:08PM 31.7153 -91.7244 107° East 452 520 37,000  Level Houston Center
04:09PM 31.6797 -91.5856 109° East 452 520 37,000  Level Houston Center
04:10PM 31.6378 -91.4464 107° East 447 514 37,000  Level Houston Center
04:11PM 31.6019 -91.3078 109° East 447 514 37,000  Level Houston Center
04:12PM 31.5600 -91.1667 109° East 441 507 37,000  Level Houston Center
04:13PM 31.5219 -91.0403 107° East 447 514 37,000  Level Houston Center
04:14PM 31.4836 -90.8919 108° East 459 528 37,000  Level Houston Center
04:15PM 31.4431 -90.7486 109° East 464 534 37,000  Level Houston Center
04:17PM 31.3936 -90.5764 108° East 464 534 37,000  Level Houston Center
04:18PM 31.3528 -90.4311 109° East 464 534 37,000  Level Houston Center
04:19PM 31.3097 -90.2858 99° East 464 534 37,000 -60 Level Houston Center
04:20PM 31.2894 -90.1331 98° East 464 534 36,900  Descending Houston Center
04:21PM 31.2708 -89.9853 98° East 464 534 37,000  Climbing Houston Center
04:22PM 31.2522 -89.8325 98° East 469 540 37,000  Level Houston Center
04:23PM 31.2333 -89.6825 98° East 469 540 37,000  Level Houston Center
04:24PM 31.2144 -89.5322 101° East 469 540 37,000  Level Houston Center
04:25PM 31.1892 -89.3847 108° East 462 532 37,000  Level Houston Center
04:26PM 31.1467 -89.2353 108° East 467 537 37,000  Level Houston Center
04:27PM 31.1067 -89.0933 110° East 473 544 37,000  Level Houston Center
04:28PM 31.0619 -88.9492 110° East 473 544 37,000  Level Houston Center
04:29PM 31.0194 -88.8097 109° East 473 544 37,000  Level Houston Center
04:30PM 30.9767 -88.6656 107° East 473 544 37,000  Level Houston Center
04:31PM 30.9378 -88.5144 109° East 468 539 37,000 -60 Level Houston Center
04:32PM 30.8947 -88.3681 109° East 473 544 36,900  Descending Houston Center
04:33PM 30.8517 -88.2244 111° Southeast 473 544 37,000  Climbing Houston Center
04:34PM 30.7611 -87.9447 109° East 466 536 37,000  Level Jacksonville Center
04:35PM 30.7169 -87.7997 110° East 466 536 37,000  Level Jacksonville Center
04:36PM 30.6722 -87.6550 109° East 466 536 37,000  Level Jacksonville Center
04:37PM 30.6294 -87.5131 109° East 471 542 37,000  Level Jacksonville Center
04:38PM 30.5867 -87.3686 109° East 471 542 37,000  Level Jacksonville Center
04:39PM 30.5436 -87.2217 107° East 471 542 37,000  Level Jacksonville Center
04:40PM 30.5047 -87.0753 103° East 476 548 37,000  Level Jacksonville Center
04:41PM 30.4742 -86.9269 102° East 471 542 37,000  Level Jacksonville Center
04:42PM 30.4475 -86.7767 102° East 471 542 37,000  Level Jacksonville Center
04:43PM 30.4206 -86.6239 102° East 471 542 37,000 -420 Level Jacksonville Center
04:44PM 30.3936 -86.4711 96° East 476 548 36,200 -1,440 Descending Jacksonville Center
04:45PM 30.3792 -86.3189 98° East 476 548 34,200 -1,980 Descending Jacksonville Center
04:46PM 30.3603 -86.1664 96° East 476 548 32,300 -1,980 Descending Jacksonville Center
04:47PM 30.3453 -86.0119 94° East 482 555 30,300 -2,040 Descending Jacksonville Center
04:48PM 30.3344 -85.8481 92° East 489 563 28,300 -2,040 Descending Jacksonville Center
04:49PM 30.3297 -85.6914 90° East 489 563 26,300 -1,980 Descending Jacksonville Center
04:50PM 30.3289 -85.5372 89° East 483 556 24,400 -1,800 Descending Jacksonville Center
04:51PM 30.3300 -85.3786 88° East 469 540 22,800 -2,400 Descending Jacksonville Center
04:52PM 30.3347 -85.2417 84° East 439 505 19,600 -3,240 Descending Jacksonville Center
04:53PM 30.3453 -85.1167 86° East 408 470 16,400 -3,300 Descending Jacksonville Center
04:54PM 30.3514 -85.0061 85° East 372 428 13,000 -3,060 Descending Jacksonville Center
04:55PM 30.3592 -84.9003 86° East 342 394 10,300 -1,920 Descending Jacksonville Center
04:56PM 30.3647 -84.8089 89° East 308 354 9,200 -1,080 Descending Jacksonville Center
04:57PM 30.3661 -84.7319 98° East 266 306 8,200 -1,680 Descending Jacksonville Center
04:58PM 30.3567 -84.6522 99° East 248 285 5,900 -1,980 Descending Jacksonville Center
04:59PM 30.3453 -84.5656 99° East 253 291 4,300 -1,620 Descending Jacksonville Center